map of EGO home
EGO - Airport
Location
City:  Belgorod, Belgorodskaya, Russian Federation (Russia)
Name:Belgorod International Airport
ICAO:UUOB
IATA:EGO

Details
Type:Airport (Aerodrome, Airfield)
Use:Public/Civil, International (customs port of entry)
Latitude:5038'38"N (50.643889)
Longitude:3635'24"E (36.590000)
Elevation:735 ft (224 m)
Variation:8.83E (WMM2015 magnetic declination)
0.11 annual change
Runways:1
Longest:8202 × 148 ft (2500 × 45 m), paved

Time
Time Zone:UTC+3 (DST+4)

Weather
METAR:UUOB 121330Z 19004MPS 9999 BKN018 07/06 Q1013 R11/290055 NOSIG

Related Locations
Nearby:
Farthest:CHT: 10828 mi / 17426 km
Waitangi [Tuuta], CIT, NZ

Find:

   beyond  
but within

Other Information
Maps:
NOTAMs:
Links:
Sources:

  
flag of Russian Federation (Russia)
flag of Belgorodskaya
  

Airport Diagram

Airport diagram for EGO

Airport diagram PDF from AIP of the Russian Federation

Sectional Chart

Flight Planning
at skyvector.com

Satellite Image

Google Maps Satellite view

Yandex Maps Satellite view


 

Copyright © 2004-2017 Karl L. Swartz. All rights reserved.
The Great Circle Mapper name and logo are trademarks of the Great Circle Mapper.
All other trademarks mentioned herein belong to their respective owners.
Please see credits for attibutions and further copyright information.

  Follow gcmap on Facebook Follow gcmap on Twitter Follow gcmap on Google+ GCmap on LinkedIn

hCard Microformat

Geo Microformat